Time;durP1;ratioP1;P1;durP2;ratioP2;P2;SDS_P1;SDS_P2;PMS_P1;PMS_P2;Temp;Humidity;BMP_temperature;BMP_pressure;BME280_temperature;BME280_humidity;BME280_pressure;Samples;Min_cycle;Max_cycle;Signal;HPM_P1;HPM_P2
2021/01/23 00:01:20;;;;;;;3.95;1.30;;;16.60;56.40;;;;;;5041435;28;20084;-71
2021/01/23 00:03:46;;;;;;;5.43;2.03;;;16.60;56.40;;;;;;5037031;28;20108;-68
2021/01/23 00:06:11;;;;;;;3.95;1.70;;;16.60;56.40;;;;;;5037540;28;20441;-74
2021/01/23 00:08:37;;;;;;;4.13;1.90;;;16.50;56.40;;;;;;5035504;28;20028;-72
2021/01/23 00:11:03;;;;;;;3.08;1.45;;;16.50;56.40;;;;;;5036355;28;20033;-68
2021/01/23 00:13:29;;;;;;;5.30;1.45;;;16.50;56.40;;;;;;5037749;28;20490;-70
2021/01/23 00:15:55;;;;;;;2.45;1.25;;;16.50;56.30;;;;;;5036722;28;20032;-70
2021/01/23 00:18:20;;;;;;;3.60;1.55;;;16.40;56.30;;;;;;5037410;28;20026;-71
2021/01/23 00:20:46;;;;;;;2.70;1.85;;;16.40;56.40;;;;;;5037082;28;20075;-68
2021/01/23 00:23:11;;;;;;;3.70;1.50;;;16.40;56.90;;;;;;5036534;28;20037;-69
2021/01/23 00:25:37;;;;;;;2.78;1.40;;;16.30;56.80;;;;;;5038493;28;20032;-71
2021/01/23 00:28:04;;;;;;;3.92;1.50;;;16.30;56.30;;;;;;5037271;28;20025;-73
2021/01/23 00:30:29;;;;;;;4.13;1.45;;;16.30;56.30;;;;;;5037205;28;20033;-71
2021/01/23 00:32:55;;;;;;;3.15;1.75;;;16.30;56.30;;;;;;5037065;28;20025;-68
2021/01/23 00:35:20;;;;;;;3.13;1.45;;;16.20;56.30;;;;;;5036575;28;20102;-69
2021/01/23 00:37:48;;;;;;;4.18;1.85;;;16.20;56.30;;;;;;5036665;28;20070;-68
2021/01/23 00:40:14;;;;;;;2.88;1.60;;;16.20;56.30;;;;;;5035614;28;20448;-68
2021/01/23 00:42:40;;;;;;;2.53;1.42;;;16.10;56.30;;;;;;5036847;28;20029;-68
2021/01/23 00:45:06;;;;;;;3.53;1.67;;;16.10;56.30;;;;;;5036747;28;20035;-71
2021/01/23 00:47:31;;;;;;;2.70;1.33;;;16.10;56.30;;;;;;5037031;28;20026;-68
2021/01/23 00:49:57;;;;;;;2.13;1.30;;;16.10;56.30;;;;;;5034665;28;20582;-71
2021/01/23 00:52:23;;;;;;;3.45;1.63;;;16.00;56.80;;;;;;5033393;28;20070;-68
2021/01/23 00:54:48;;;;;;;2.78;1.40;;;16.10;56.30;;;;;;5031805;28;20083;-71
2021/01/23 00:57:14;;;;;;;5.82;2.22;;;16.00;56.30;;;;;;5032797;28;20414;-68
2021/01/23 00:59:39;;;;;;;3.20;1.70;;;16.00;56.30;;;;;;5033664;28;20051;-67
2021/01/23 01:02:05;;;;;;;4.10;2.05;;;16.00;56.30;;;;;;5033546;28;20577;-71
2021/01/23 01:04:30;;;;;;;3.03;1.50;;;15.90;56.20;;;;;;5033439;28;20025;-70
2021/01/23 01:06:56;;;;;;;3.72;1.45;;;15.90;56.20;;;;;;5033140;28;20084;-73
2021/01/23 01:09:22;;;;;;;4.13;1.33;;;15.90;56.30;;;;;;5033247;28;20025;-70
2021/01/23 01:11:47;;;;;;;3.53;1.65;;;15.90;56.20;;;;;;5033255;28;20076;-74
2021/01/23 01:14:13;;;;;;;2.55;1.30;;;15.90;56.20;;;;;;5033396;28;20017;-68
2021/01/23 01:16:38;;;;;;;2.80;1.38;;;15.80;56.20;;;;;;5032872;28;20037;-68
2021/01/23 01:19:04;;;;;;;2.45;1.30;;;15.80;56.20;;;;;;5033540;28;20022;-70
2021/01/23 01:21:29;;;;;;;3.22;1.73;;;15.80;56.20;;;;;;5033031;28;20516;-70
2021/01/23 01:23:55;;;;;;;2.38;1.25;;;15.80;56.30;;;;;;5032585;28;20100;-73
2021/01/23 01:26:21;;;;;;;4.07;1.63;;;15.80;56.30;;;;;;5032314;28;20185;-71
2021/01/23 01:28:46;;;;;;;4.57;1.65;;;15.80;56.30;;;;;;5046135;28;20028;-71
2021/01/23 01:31:12;;;;;;;2.95;1.30;;;15.70;56.20;;;;;;5052855;28;20055;-69
2021/01/23 01:33:37;;;;;;;2.72;1.30;;;15.70;56.20;;;;;;5038603;28;20033;-68
2021/01/23 01:36:04;;;;;;;2.50;1.70;;;15.70;56.20;;;;;;5032719;28;20041;-72
2021/01/23 01:38:29;;;;;;;2.97;1.45;;;15.70;56.20;;;;;;5032928;28;20072;-68
2021/01/23 01:40:55;;;;;;;3.05;1.50;;;15.70;56.30;;;;;;5032772;28;20057;-69
2021/01/23 01:43:21;;;;;;;3.25;1.70;;;15.60;56.20;;;;;;5033122;28;20025;-70
2021/01/23 01:45:46;;;;;;;4.53;1.55;;;15.60;56.20;;;;;;5032604;28;20366;-70
2021/01/23 01:48:13;;;;;;;3.03;1.48;;;15.60;56.30;;;;;;5032962;28;20036;-69
2021/01/23 01:50:39;;;;;;;2.70;1.30;;;15.60;56.20;;;;;;5032395;28;20378;-71
2021/01/23 01:53:09;;;;;;;4.25;1.70;;;15.60;56.20;;;;;;5032837;28;20039;-68
2021/01/23 01:55:35;;;;;;;3.42;1.42;;;15.50;56.30;;;;;;5031090;28;20040;-68
2021/01/23 01:58:01;;;;;;;4.25;1.85;;;15.50;56.30;;;;;;5031306;28;20103;-67
2021/01/23 02:00:28;;;;;;;3.40;1.40;;;15.50;56.30;;;;;;5032988;28;20385;-68
2021/01/23 02:03:19;;;;;;;2.22;1.30;;;15.40;56.20;;;;;;5031402;28;20025;-73
2021/01/23 02:06:13;;;;;;;2.15;1.30;;;15.50;56.30;;;;;;5031707;28;20032;-72
2021/01/23 02:08:44;;;;;;;4.05;1.63;;;15.40;56.20;;;;;;5031834;28;20026;-70
2021/01/23 02:11:36;;;;;;;4.55;1.83;;;15.40;56.30;;;;;;5032350;28;20501;-71
2021/01/23 02:14:29;;;;;;;3.03;1.30;;;15.40;56.30;;;;;;5032575;28;20029;-70
2021/01/23 02:16:59;;;;;;;3.33;1.25;;;15.40;56.20;;;;;;5031997;28;20049;-68
2021/01/23 02:19:48;;;;;;;3.38;1.23;;;15.40;56.30;;;;;;5032152;28;20072;-74
2021/01/23 02:22:32;;;;;;;3.22;1.48;;;15.30;56.30;;;;;;5021717;28;20493;-71
2021/01/23 02:24:58;;;;;;;3.42;1.73;;;15.40;56.30;;;;;;5031928;28;20033;-72
2021/01/23 02:27:47;;;;;;;3.70;1.75;;;15.30;56.30;;;;;;5031215;28;20418;-69
2021/01/23 02:30:25;;;;;;;3.17;1.55;;;15.30;56.30;;;;;;5031833;28;20025;-68
2021/01/23 02:32:54;;;;;;;3.72;1.55;;;15.30;56.30;;;;;;5031915;28;20036;-70
2021/01/23 02:35:23;;;;;;;3.30;1.25;;;15.30;56.30;;;;;;5031690;28;20428;-68
2021/01/23 02:37:49;;;;;;;4.18;1.60;;;15.30;56.40;;;;;;5031227;28;20035;-68
2021/01/23 02:40:16;;;;;;;4.45;1.60;;;15.20;56.30;;;;;;5031478;28;20025;-74
2021/01/23 02:42:41;;;;;;;2.92;1.35;;;15.30;56.40;;;;;;5031306;28;20030;-68
2021/01/23 02:45:09;;;;;;;2.58;1.30;;;15.20;56.30;;;;;;5031575;28;20032;-69
2021/01/23 02:47:36;;;;;;;4.97;1.50;;;15.20;56.30;;;;;;5031560;28;20513;-70
2021/01/23 02:50:04;;;;;;;4.90;1.42;;;15.20;56.40;;;;;;5031589;28;20029;-67
2021/01/23 02:52:57;;;;;;;2.05;1.30;;;15.20;56.40;;;;;;5031375;28;20064;-69
2021/01/23 02:55:27;;;;;;;3.40;1.45;;;15.20;57.00;;;;;;5029985;28;20046;-67
2021/01/23 02:57:55;;;;;;;2.58;1.02;;;15.20;56.40;;;;;;5032184;28;20037;-72
2021/01/23 03:00:24;;;;;;;2.65;1.23;;;15.20;56.40;;;;;;5051251;28;20017;-69
2021/01/23 03:02:54;;;;;;;5.63;1.77;;;15.20;56.50;;;;;;5041701;28;20032;-69
2021/01/23 03:05:24;;;;;;;3.22;1.33;;;15.20;56.50;;;;;;5030974;28;20120;-69
2021/01/23 03:07:54;;;;;;;2.78;1.10;;;15.10;56.40;;;;;;5030233;28;20041;-68
2021/01/23 03:10:36;;;;;;;2.97;1.20;;;15.10;56.50;;;;;;5031097;28;20179;-67
2021/01/23 03:13:02;;;;;;;2.60;1.25;;;15.10;56.50;;;;;;5031178;28;20112;-70
2021/01/23 03:15:28;;;;;;;3.90;1.20;;;15.10;56.50;;;;;;5031171;28;20022;-70
2021/01/23 03:17:53;;;;;;;3.40;1.23;;;15.10;56.50;;;;;;5031124;28;20438;-67
2021/01/23 03:20:19;;;;;;;3.47;1.35;;;15.10;56.50;;;;;;5030845;28;20040;-72
2021/01/23 03:22:45;;;;;;;3.55;1.33;;;15.00;56.50;;;;;;5030719;28;20104;-68
2021/01/23 03:25:10;;;;;;;2.42;1.20;;;15.00;56.50;;;;;;5030683;28;20569;-71
2021/01/23 03:27:36;;;;;;;3.00;1.20;;;15.00;56.50;;;;;;5033386;28;20081;-74
2021/01/23 03:30:04;;;;;;;2.40;0.93;;;15.00;56.50;;;;;;5049653;28;20124;-67
2021/01/23 03:32:30;;;;;;;2.40;1.20;;;15.00;56.50;;;;;;5044635;28;20066;-69
2021/01/23 03:34:55;;;;;;;2.83;1.10;;;15.00;56.50;;;;;;5030705;28;20026;-69
2021/01/23 03:37:21;;;;;;;3.25;1.40;;;15.00;56.50;;;;;;5030679;28;20052;-69
2021/01/23 03:39:46;;;;;;;2.38;1.30;;;15.00;56.50;;;;;;5030554;28;20052;-69
2021/01/23 03:42:12;;;;;;;2.58;1.10;;;15.00;56.60;;;;;;5030415;28;20028;-72
2021/01/23 03:44:37;;;;;;;4.20;1.20;;;14.90;56.50;;;;;;5030794;28;20037;-73
2021/01/23 03:47:03;;;;;;;3.00;1.25;;;14.90;56.50;;;;;;5031005;28;20098;-69
2021/01/23 03:49:29;;;;;;;3.22;1.25;;;14.90;56.60;;;;;;5030663;28;20389;-68
2021/01/23 03:51:54;;;;;;;3.75;1.33;;;14.90;56.50;;;;;;5030350;28;20038;-68
2021/01/23 03:54:20;;;;;;;3.60;1.42;;;14.90;56.60;;;;;;5030575;28;20037;-71
2021/01/23 03:56:45;;;;;;;3.25;1.08;;;14.90;56.60;;;;;;5029774;28;20128;-69
2021/01/23 03:59:11;;;;;;;3.58;1.20;;;14.80;56.50;;;;;;5046856;28;20021;-71
2021/01/23 04:01:36;;;;;;;2.78;1.00;;;14.80;56.60;;;;;;5036949;28;20036;-68
2021/01/23 04:04:02;;;;;;;2.97;1.10;;;14.80;56.60;;;;;;5030557;28;20105;-68
2021/01/23 04:06:28;;;;;;;2.60;1.10;;;14.80;56.60;;;;;;5030534;28;20370;-68
2021/01/23 04:08:53;;;;;;;3.25;1.35;;;14.80;56.60;;;;;;5030648;28;20040;-68
2021/01/23 04:11:19;;;;;;;3.22;1.48;;;14.80;56.60;;;;;;5030332;28;20030;-71
2021/01/23 04:13:44;;;;;;;3.55;1.35;;;14.80;56.60;;;;;;5030155;28;20570;-70
2021/01/23 04:16:10;;;;;;;3.70;1.35;;;14.70;56.50;;;;;;5030773;28;20613;-69
2021/01/23 04:18:35;;;;;;;2.90;1.20;;;14.70;56.50;;;;;;5030236;28;20038;-70
2021/01/23 04:21:01;;;;;;;2.25;1.08;;;14.70;56.50;;;;;;5030519;28;20481;-74
2021/01/23 04:23:27;;;;;;;3.05;1.15;;;14.70;56.60;;;;;;5030788;28;20106;-69
2021/01/23 04:25:52;;;;;;;3.90;1.20;;;14.70;56.60;;;;;;5031899;28;20402;-68
2021/01/23 04:28:19;;;;;;;2.95;1.42;;;14.70;56.50;;;;;;5042658;28;20024;-68
2021/01/23 04:30:44;;;;;;;2.97;1.33;;;14.70;56.60;;;;;;5054017;28;20033;-67
2021/01/23 04:33:10;;;;;;;1.83;1.08;;;14.60;56.50;;;;;;5047888;28;20389;-70
2021/01/23 04:35:36;;;;;;;2.95;1.00;;;14.60;56.50;;;;;;5033699;28;20035;-67
2021/01/23 04:38:02;;;;;;;2.40;1.00;;;14.60;56.50;;;;;;5034220;28;20029;-68
2021/01/23 04:40:28;;;;;;;2.67;1.35;;;14.60;56.50;;;;;;5034005;28;20036;-71
2021/01/23 04:42:54;;;;;;;3.28;1.20;;;14.60;56.50;;;;;;5033987;28;20036;-70
2021/01/23 04:45:20;;;;;;;2.75;1.30;;;14.60;56.50;;;;;;5034009;28;20085;-67
2021/01/23 04:47:46;;;;;;;2.00;1.00;;;14.60;56.60;;;;;;5033851;28;20021;-68
2021/01/23 04:50:12;;;;;;;3.20;1.08;;;14.60;56.50;;;;;;5033733;28;20505;-73
2021/01/23 04:52:39;;;;;;;2.67;1.02;;;14.60;56.60;;;;;;5033694;28;20013;-67
2021/01/23 04:55:09;;;;;;;3.45;1.27;;;14.60;56.60;;;;;;5033865;28;20037;-70
2021/01/23 04:57:35;;;;;;;2.10;0.90;;;14.50;56.50;;;;;;5032648;28;20469;-68
2021/01/23 05:00:01;;;;;;;3.78;1.10;;;14.50;56.50;;;;;;5033851;28;20037;-67
2021/01/23 05:02:27;;;;;;;2.47;1.10;;;14.50;56.50;;;;;;5033348;28;20485;-70
2021/01/23 05:05:02;;;;;;;3.92;1.40;;;14.50;56.50;;;;;;5033200;28;20037;-70
2021/01/23 05:07:30;;;;;;;5.03;1.30;;;14.50;56.50;;;;;;5032795;28;20441;-68
2021/01/23 05:09:57;;;;;;;3.13;1.15;;;14.50;56.60;;;;;;5033299;28;20426;-67
2021/01/23 05:12:56;;;;;;;1.98;0.90;;;14.50;56.60;;;;;;5033026;28;20034;-68
2021/01/23 05:15:24;;;;;;;3.22;1.30;;;14.50;56.60;;;;;;5022234;28;20262;-68
2021/01/23 05:18:06;;;;;;;2.75;1.10;;;14.50;56.60;;;;;;5032772;28;20592;-68
2021/01/23 05:20:40;;;;;;;3.85;1.15;;;14.50;57.10;;;;;;5033410;28;20017;-69
2021/01/23 05:23:12;;;;;;;3.22;1.13;;;14.40;56.50;;;;;;5032956;28;20025;-69
2021/01/23 05:25:39;;;;;;;3.22;1.00;;;14.50;56.60;;;;;;5032243;28;20022;-67
2021/01/23 05:28:06;;;;;;;2.40;1.02;;;14.40;56.50;;;;;;5032838;28;20147;-68
2021/01/23 05:30:52;;;;;;;3.38;1.08;;;14.40;56.50;;;;;;5032776;28;20033;-68
2021/01/23 05:33:22;;;;;;;;;;;14.40;56.60;;;;;;5032631;28;20397;-67
2021/01/23 05:36:08;;;;;;;3.33;1.17;;;14.40;56.60;;;;;;5032099;28;20020;-69
2021/01/23 05:38:45;;;;;;;2.70;1.00;;;14.40;56.60;;;;;;5032696;28;20041;-72
2021/01/23 05:41:13;;;;;;;2.28;0.80;;;14.40;56.60;;;;;;5033235;28;20026;-70
2021/01/23 05:43:41;;;;;;;3.15;0.90;;;14.40;56.60;;;;;;5032647;28;20025;-70
2021/01/23 05:46:11;;;;;;;4.32;1.00;;;14.40;56.60;;;;;;5032747;28;20022;-70
2021/01/23 05:48:40;;;;;;;2.17;0.95;;;14.40;56.60;;;;;;5033032;28;20548;-68
2021/01/23 05:51:06;;;;;;;2.38;0.80;;;14.30;56.50;;;;;;5032735;28;20025;-67
2021/01/23 05:53:32;;;;;;;3.40;1.13;;;14.40;56.60;;;;;;5032001;28;20497;-72
2021/01/23 05:56:01;;;;;;;2.97;0.90;;;14.30;56.60;;;;;;5032168;28;20397;-72
2021/01/23 05:58:28;;;;;;;1.67;1.00;;;14.40;56.60;;;;;;5032811;28;20037;-68
2021/01/23 06:00:55;;;;;;;2.15;0.80;;;14.30;56.60;;;;;;5031568;28;20030;-71
2021/01/23 06:03:21;;;;;;;2.50;0.80;;;14.30;57.10;;;;;;5032105;28;20029;-71
2021/01/23 06:05:52;;;;;;;3.58;1.30;;;14.40;56.60;;;;;;5031956;28;20056;-72
2021/01/23 06:08:35;;;;;;;2.17;0.88;;;14.30;56.60;;;;;;5032400;28;20044;-69
2021/01/23 06:11:01;;;;;;;3.70;0.90;;;14.30;56.60;;;;;;5032286;28;20033;-69
2021/01/23 06:13:39;;;;;;;2.30;0.75;;;14.30;56.60;;;;;;5037297;28;20021;-73
2021/01/23 06:16:06;;;;;;;4.00;0.82;;;14.30;56.60;;;;;;5052159;28;20029;-69
2021/01/23 06:18:32;;;;;;;3.58;0.80;;;14.30;56.60;;;;;;5033600;28;20409;-68
2021/01/23 06:21:00;;;;;;;3.08;0.95;;;14.30;56.60;;;;;;5032547;28;20501;-75
2021/01/23 06:23:45;;;;;;;2.78;1.25;;;14.30;56.60;;;;;;5031715;28;20025;-69
2021/01/23 06:26:10;;;;;;;2.67;1.05;;;14.30;56.60;;;;;;5031543;28;20036;-68
2021/01/23 06:28:39;;;;;;;2.20;0.70;;;14.20;56.60;;;;;;5031117;28;20037;-74
2021/01/23 06:31:23;;;;;;;2.13;0.98;;;14.20;56.60;;;;;;5031904;28;20033;-73
2021/01/23 06:33:49;;;;;;;3.47;1.05;;;14.20;56.60;;;;;;5031202;28;20472;-69
2021/01/23 06:36:22;;;;;;;1.95;0.80;;;14.20;56.60;;;;;;5031885;28;20033;-67
2021/01/23 06:39:09;;;;;;;2.67;1.17;;;14.20;56.60;;;;;;5031049;28;20080;-70
2021/01/23 06:41:38;;;;;;;2.78;1.00;;;14.20;56.50;;;;;;5030745;28;20530;-73
2021/01/23 06:44:06;;;;;;;2.45;1.05;;;14.20;56.60;;;;;;5033564;28;20013;-68
2021/01/23 06:46:50;;;;;;;1.50;0.60;;;14.20;56.60;;;;;;5051188;28;20465;-71
2021/01/23 06:49:16;;;;;;;2.15;0.88;;;14.20;57.20;;;;;;5050981;28;20017;-71
2021/01/23 06:51:42;;;;;;;3.28;0.80;;;14.20;56.60;;;;;;5051441;28;20536;-73
2021/01/23 06:54:14;;;;;;;1.98;0.90;;;14.20;56.50;;;;;;5043208;28;20033;-69
2021/01/23 06:56:44;;;;;;;2.03;0.70;;;14.20;56.50;;;;;;5029754;28;20033;-71
2021/01/23 06:59:23;;;;;;;2.65;1.00;;;14.20;56.60;;;;;;5031204;28;20112;-73
2021/01/23 07:02:08;;;;;;;2.70;0.90;;;14.20;56.50;;;;;;5030886;28;20033;-67
2021/01/23 07:04:52;;;;;;;1.40;0.57;;;14.10;56.50;;;;;;5031414;28;20014;-71
2021/01/23 07:07:18;;;;;;;3.55;0.95;;;14.10;56.50;;;;;;5030709;28;20029;-68
2021/01/23 07:09:50;;;;;;;2.42;0.85;;;14.10;56.50;;;;;;5030607;28;20032;-67
2021/01/23 07:12:39;;;;;;;2.58;0.75;;;14.20;56.50;;;;;;5030532;28;20034;-72
2021/01/23 07:15:09;;;;;;;3.88;1.00;;;14.20;56.50;;;;;;5044619;28;20029;-68
2021/01/23 07:17:42;;;;;;;4.05;1.08;;;14.10;56.50;;;;;;5050743;28;20043;-68
2021/01/23 07:20:16;;;;;;;2.13;0.80;;;14.10;56.50;;;;;;5038021;28;20044;-70
2021/01/23 07:22:43;;;;;;;3.05;0.90;;;14.10;56.50;;;;;;5011480;28;20030;-70
2021/01/23 07:25:12;;;;;;;2.05;0.70;;;14.10;56.50;;;;;;5011475;28;20428;-70
2021/01/23 07:27:39;;;;;;;2.65;0.90;;;14.10;56.50;;;;;;5025831;28;20139;-69
2021/01/23 07:30:17;;;;;;;2.33;0.90;;;14.10;57.10;;;;;;5030683;28;20401;-69
2021/01/23 07:32:47;;;;;;;3.63;0.82;;;14.10;56.50;;;;;;5030208;28;20025;-67
2021/01/23 07:35:14;;;;;;;2.95;0.80;;;14.10;57.10;;;;;;5030202;28;20029;-73
2021/01/23 07:37:47;;;;;;;2.42;1.10;;;14.10;56.50;;;;;;5030761;28;20045;-72
2021/01/23 07:40:35;;;;;;;2.00;0.90;;;14.10;56.60;;;;;;5024904;28;20112;-70
2021/01/23 07:43:05;;;;;;;4.90;0.80;;;14.10;56.70;;;;;;5035143;28;20025;-72
2021/01/23 07:45:32;;;;;;;2.25;0.80;;;14.10;56.60;;;;;;5029330;28;20385;-74
2021/01/23 07:47:59;;;;;;;2.67;0.80;;;14.10;56.70;;;;;;5042762;28;20516;-68
2021/01/23 07:50:25;;;;;;;3.75;0.80;;;14.20;56.70;;;;;;5026976;28;20029;-71
2021/01/23 07:52:50;;;;;;;2.33;1.00;;;14.20;56.70;;;;;;5050561;28;20036;-70
2021/01/23 07:55:16;;;;;;;2.35;0.70;;;14.30;56.70;;;;;;5047583;28;20029;-72
2021/01/23 07:57:42;;;;;;;2.60;0.90;;;14.40;56.80;;;;;;5049922;28;20069;-74
2021/01/23 08:00:20;;;;;;;2.30;0.98;;;14.50;56.80;;;;;;5053645;28;20033;-70
2021/01/23 08:02:52;;;;;;;2.83;0.90;;;14.60;56.80;;;;;;5053216;28;20025;-71
2021/01/23 08:05:18;;;;;;;2.40;0.80;;;14.70;56.80;;;;;;5039880;28;20036;-70
2021/01/23 08:07:45;;;;;;;2.15;1.00;;;14.80;56.80;;;;;;5033856;28;20029;-68
2021/01/23 08:10:18;;;;;;;2.15;0.70;;;14.90;56.90;;;;;;5035248;28;20033;-72
2021/01/23 08:13:01;;;;;;;2.15;0.70;;;15.00;57.10;;;;;;5051686;28;20082;-70
2021/01/23 08:15:37;;;;;;;3.20;0.85;;;15.10;57.60;;;;;;5038985;28;20025;-74
2021/01/23 08:18:19;;;;;;;3.33;0.90;;;15.30;57.60;;;;;;5052268;28;20059;-74
2021/01/23 08:20:45;;;;;;;4.85;1.08;;;15.40;57.20;;;;;;5051526;28;20044;-74
2021/01/23 08:23:16;;;;;;;3.65;0.70;;;15.50;57.60;;;;;;5054586;28;20378;-74
2021/01/23 08:25:49;;;;;;;4.70;0.93;;;15.60;57.60;;;;;;5025980;28;20053;-73
2021/01/23 08:28:17;;;;;;;7.43;1.00;;;15.80;57.70;;;;;;5033837;28;20017;-73
2021/01/23 08:30:43;;;;;;;8.65;1.38;;;15.90;58.00;;;;;;5033817;28;20037;-72
2021/01/23 08:33:11;;;;;;;5.90;1.42;;;16.00;57.80;;;;;;5042346;28;20033;-72
2021/01/23 08:35:39;;;;;;;6.80;1.52;;;16.10;57.70;;;;;;5044365;28;20051;-73
2021/01/23 08:38:06;;;;;;;6.82;1.67;;;16.20;57.70;;;;;;5054107;28;20029;-73
2021/01/23 08:40:32;;;;;;;3.25;1.08;;;16.30;57.80;;;;;;5041820;28;20397;-72
2021/01/23 08:42:58;;;;;;;4.00;1.17;;;16.40;57.70;;;;;;5054350;28;20378;-73
2021/01/23 08:45:26;;;;;;;8.30;1.98;;;16.60;58.60;;;;;;5033817;28;20039;-71
2021/01/23 08:47:52;;;;;;;4.32;1.10;;;16.70;57.90;;;;;;5021910;28;20025;-72
2021/01/23 08:50:18;;;;;;;7.30;1.42;;;16.70;57.40;;;;;;5032050;28;20079;-75
2021/01/23 08:52:44;;;;;;;5.40;1.17;;;16.80;57.30;;;;;;5032394;28;20028;-73
2021/01/23 08:55:10;;;;;;;7.20;1.67;;;16.90;57.70;;;;;;5031637;28;20029;-72
2021/01/23 08:57:36;;;;;;;4.22;1.38;;;16.90;57.00;;;;;;5032333;28;20033;-73
2021/01/23 09:00:05;;;;;;;4.35;1.25;;;17.00;56.90;;;;;;5041196;28;20033;-70
2021/01/23 09:02:31;;;;;;;4.22;1.40;;;17.10;56.70;;;;;;5041200;28;20149;-73
2021/01/23 09:04:56;;;;;;;5.60;1.13;;;17.20;56.60;;;;;;5032833;28;20254;-75
2021/01/23 09:07:22;;;;;;;5.88;1.40;;;17.20;56.70;;;;;;5030849;28;20455;-74
2021/01/23 09:09:47;;;;;;;6.68;1.65;;;17.30;56.60;;;;;;5033293;28;20040;-73
2021/01/23 09:12:13;;;;;;;4.43;1.23;;;17.40;56.70;;;;;;5046389;28;20496;-73
2021/01/23 09:14:39;;;;;;;2.88;1.40;;;17.40;56.50;;;;;;5045850;28;20555;-69
2021/01/23 09:17:05;;;;;;;6.13;1.52;;;17.50;56.50;;;;;;5016348;28;20284;-76
2021/01/23 09:19:31;;;;;;;5.38;1.50;;;17.60;56.20;;;;;;5043940;28;20032;-77
2021/01/23 09:21:57;;;;;;;6.07;1.50;;;17.70;55.80;;;;;;5053382;28;20033;-83
2021/01/23 09:24:22;;;;;;;5.15;1.60;;;17.80;55.60;;;;;;5044920;28;20028;-83
2021/01/23 09:26:48;;;;;;;5.40;1.35;;;17.80;55.70;;;;;;5032479;28;20034;-84
2021/01/23 09:29:14;;;;;;;5.22;1.40;;;17.70;55.80;;;;;;5038135;28;20116;-83
2021/01/23 09:31:39;;;;;;;4.40;1.40;;;17.80;55.80;;;;;;5050530;28;20068;-82
2021/01/23 09:34:06;;;;;;;3.50;1.20;;;17.70;55.70;;;;;;5051826;28;20080;-83
2021/01/23 09:36:32;;;;;;;6.57;1.70;;;17.80;55.80;;;;;;5053393;28;20108;-83
2021/01/23 09:38:58;;;;;;;5.20;1.83;;;17.80;55.70;;;;;;5048453;28;20035;-83
2021/01/23 09:41:24;;;;;;;3.88;1.30;;;17.80;55.50;;;;;;5050850;28;20480;-83
2021/01/23 09:43:50;;;;;;;4.07;1.38;;;17.90;55.50;;;;;;5047538;28;20447;-79
2021/01/23 09:46:15;;;;;;;5.88;1.60;;;17.90;55.30;;;;;;5050585;28;20535;-79
2021/01/23 09:48:41;;;;;;;4.15;1.27;;;17.90;55.20;;;;;;5048832;28;20017;-83
2021/01/23 09:51:06;;;;;;;4.63;1.73;;;17.90;55.20;;;;;;5046531;28;20108;-68
2021/01/23 09:53:32;;;;;;;3.53;1.38;;;18.00;55.20;;;;;;5052462;28;20029;-67
2021/01/23 09:55:57;;;;;;;3.35;1.25;;;18.00;55.10;;;;;;5051154;28;20039;-70
2021/01/23 09:58:23;;;;;;;6.45;1.27;;;18.00;55.00;;;;;;5044926;28;20029;-72
2021/01/23 10:00:49;;;;;;;4.75;1.25;;;18.00;54.90;;;;;;5038254;28;20029;-67
2021/01/23 10:03:15;;;;;;;4.88;1.70;;;18.10;54.90;;;;;;5036288;28;20055;-67
2021/01/23 10:05:40;;;;;;;3.72;1.48;;;18.10;54.80;;;;;;5050763;28;20021;-67
2021/01/23 10:08:06;;;;;;;4.07;1.77;;;18.10;54.80;;;;;;5052238;28;20455;-67
2021/01/23 10:10:32;;;;;;;4.95;1.40;;;18.10;55.20;;;;;;5050512;28;20464;-69
2021/01/23 10:12:58;;;;;;;3.47;1.40;;;18.10;54.70;;;;;;5052711;28;20550;-70
2021/01/23 10:15:24;;;;;;;3.15;1.33;;;18.10;54.60;;;;;;5050922;28;20033;-78
2021/01/23 10:17:49;;;;;;;2.88;1.30;;;18.10;54.50;;;;;;5051902;28;20493;-72
2021/01/23 10:20:15;;;;;;;2.88;1.40;;;18.10;54.40;;;;;;5032105;28;20041;-72
2021/01/23 10:22:41;;;;;;;5.40;1.65;;;18.20;54.40;;;;;;5025565;28;20040;-67
2021/01/23 10:25:07;;;;;;;3.42;1.30;;;18.20;54.90;;;;;;5038023;28;20025;-67
2021/01/23 10:27:33;;;;;;;6.35;1.60;;;18.20;54.30;;;;;;5052063;28;20033;-71
2021/01/23 10:29:59;;;;;;;4.63;1.70;;;18.20;54.20;;;;;;5033609;28;20029;-67
2021/01/23 10:32:25;;;;;;;4.90;1.73;;;18.20;54.20;;;;;;5032110;28;20508;-68
2021/01/23 10:34:50;;;;;;;3.78;1.90;;;18.20;54.00;;;;;;5039139;28;20080;-69
2021/01/23 10:37:16;;;;;;;5.40;1.58;;;18.20;54.00;;;;;;5041566;28;20041;-67
2021/01/23 10:39:42;;;;;;;4.13;1.38;;;18.20;53.90;;;;;;5050362;28;20025;-67
2021/01/23 10:42:07;;;;;;;3.78;1.80;;;18.20;53.90;;;;;;5051986;28;20565;-67
2021/01/23 10:44:39;;;;;;;3.58;1.50;;;18.30;53.90;;;;;;5042480;28;20017;-67
2021/01/23 10:47:08;;;;;;;3.60;1.40;;;18.30;53.90;;;;;;5035076;28;20057;-67
2021/01/23 10:49:35;;;;;;;4.85;1.50;;;18.30;53.80;;;;;;5031009;28;20018;-73
2021/01/23 10:52:01;;;;;;;3.72;1.40;;;18.30;53.70;;;;;;5048573;28;20612;-68
2021/01/23 10:54:27;;;;;;;3.28;1.50;;;18.30;53.80;;;;;;5039899;28;20129;-67
2021/01/23 10:56:53;;;;;;;3.97;1.38;;;18.30;53.60;;;;;;5031510;28;20094;-68
2021/01/23 10:59:19;;;;;;;4.05;1.70;;;18.40;53.50;;;;;;5038565;28;20029;-68
2021/01/23 11:01:44;;;;;;;4.53;1.50;;;18.40;53.60;;;;;;5033323;28;20036;-68
2021/01/23 11:04:10;;;;;;;4.63;1.70;;;18.30;53.40;;;;;;5033033;28;20136;-68
2021/01/23 11:06:36;;;;;;;4.22;1.63;;;18.30;53.40;;;;;;5041636;28;20523;-68
2021/01/23 11:09:02;;;;;;;5.20;1.70;;;18.40;53.40;;;;;;5051499;28;20025;-67
2021/01/23 11:11:30;;;;;;;3.33;1.65;;;18.40;53.30;;;;;;5050386;28;20029;-74
2021/01/23 11:13:56;;;;;;;4.60;1.60;;;18.40;53.30;;;;;;5051058;28;20060;-72
2021/01/23 11:16:22;;;;;;;4.13;1.42;;;18.40;53.30;;;;;;5049578;28;20060;-84
2021/01/23 11:18:47;;;;;;;4.80;1.50;;;18.40;53.20;;;;;;5047757;28;20745;-77
2021/01/23 11:21:13;;;;;;;3.63;1.25;;;18.40;53.20;;;;;;5049805;28;20024;-72
2021/01/23 11:23:38;;;;;;;3.47;1.15;;;18.40;53.10;;;;;;5047605;28;20126;-83
2021/01/23 11:26:04;;;;;;;2.75;1.10;;;18.50;53.10;;;;;;5051034;28;20547;-83
2021/01/23 11:28:29;;;;;;;3.17;1.50;;;18.50;53.00;;;;;;5048978;28;20100;-82
2021/01/23 11:30:55;;;;;;;2.95;1.25;;;18.50;53.10;;;;;;5046423;28;20079;-80
2021/01/23 11:33:21;;;;;;;3.65;1.40;;;18.50;52.90;;;;;;5051000;28;20027;-83
2021/01/23 11:35:48;;;;;;;4.63;1.67;;;18.50;53.00;;;;;;5048358;28;20025;-77
2021/01/23 11:38:14;;;;;;;2.95;1.17;;;18.50;52.90;;;;;;5050771;28;20032;-83
2021/01/23 11:40:41;;;;;;;1.98;1.02;;;18.50;52.90;;;;;;5034376;28;20026;-83
2021/01/23 11:43:07;;;;;;;2.75;1.10;;;18.50;52.90;;;;;;5031116;28;20034;-80
2021/01/23 11:45:33;;;;;;;3.53;1.10;;;18.50;52.80;;;;;;5036351;28;20020;-82
2021/01/23 11:47:58;;;;;;;3.85;1.30;;;18.50;52.70;;;;;;5046121;28;20410;-83
2021/01/23 11:50:24;;;;;;;5.20;1.25;;;18.50;52.70;;;;;;5047016;28;20074;-77
2021/01/23 11:52:49;;;;;;;2.78;1.00;;;18.50;52.70;;;;;;5045965;28;20032;-80
2021/01/23 11:55:15;;;;;;;3.90;1.20;;;18.60;52.70;;;;;;5046795;28;20029;-80
2021/01/23 11:57:41;;;;;;;3.17;0.95;;;18.60;52.70;;;;;;5050659;28;20489;-79
2021/01/23 12:00:07;;;;;;;3.47;1.30;;;18.50;52.60;;;;;;5044651;28;20029;-78
2021/01/23 12:02:33;;;;;;;3.55;1.20;;;18.60;52.60;;;;;;5049187;28;20083;-82
2021/01/23 12:04:59;;;;;;;3.47;1.30;;;18.60;52.50;;;;;;5042135;28;20025;-76
2021/01/23 12:07:24;;;;;;;4.45;1.25;;;18.60;52.50;;;;;;5029081;28;20052;-69
2021/01/23 12:09:50;;;;;;;3.03;1.10;;;18.60;52.40;;;;;;5047179;28;20039;-70
2021/01/23 12:12:15;;;;;;;7.43;1.38;;;18.60;52.70;;;;;;5042366;28;20100;-69
2021/01/23 12:14:42;;;;;;;7.35;1.65;;;18.70;53.30;;;;;;5018210;28;20101;-70
2021/01/23 12:17:08;;;;;;;3.97;1.35;;;18.70;52.60;;;;;;5050592;28;20083;-70
2021/01/23 12:19:33;;;;;;;3.30;1.30;;;18.80;52.60;;;;;;5046006;28;20048;-69
2021/01/23 12:21:59;;;;;;;2.35;1.38;;;18.80;52.40;;;;;;5050892;28;20021;-70
2021/01/23 12:24:25;;;;;;;3.08;1.10;;;18.80;52.30;;;;;;5044861;28;20025;-69
2021/01/23 12:26:50;;;;;;;3.00;1.05;;;18.80;52.30;;;;;;5033845;28;20038;-69
2021/01/23 12:29:16;;;;;;;4.43;1.30;;;18.90;52.50;;;;;;5015724;28;20467;-71
2021/01/23 12:31:41;;;;;;;4.80;1.35;;;18.90;52.60;;;;;;5036939;28;20048;-69
2021/01/23 12:34:07;;;;;;;4.38;1.10;;;19.00;52.90;;;;;;5030510;28;20052;-69
2021/01/23 12:36:33;;;;;;;3.50;1.00;;;19.00;52.80;;;;;;5039149;28;20045;-70
2021/01/23 12:38:58;;;;;;;7.72;1.10;;;19.00;52.90;;;;;;5050542;28;20536;-69
2021/01/23 12:41:24;;;;;;;10.13;1.67;;;19.00;52.70;;;;;;5048149;28;20090;-68
2021/01/23 12:43:50;;;;;;;6.55;1.20;;;19.00;52.70;;;;;;5046271;28;20390;-68
2021/01/23 12:46:17;;;;;;;5.78;1.25;;;19.00;52.90;;;;;;5042913;28;20536;-68
2021/01/23 12:48:42;;;;;;;10.20;1.60;;;19.10;52.80;;;;;;5032999;28;20052;-68
2021/01/23 12:51:08;;;;;;;4.38;1.20;;;19.10;53.00;;;;;;5050077;28;20017;-70
2021/01/23 12:53:34;;;;;;;3.38;1.38;;;19.10;52.80;;;;;;5053880;28;20112;-69